Time;durP1;ratioP1;P1;durP2;ratioP2;P2;SDS_P1;SDS_P2;PMS_P1;PMS_P2;Temp;Humidity;BMP_temperature;BMP_pressure;BME280_temperature;BME280_humidity;BME280_pressure;Samples;Min_cycle;Max_cycle;Signal;HPM_P1;HPM_P2
2021/11/30 00:01:39;;;;;;;0.00;0.00;;;;;;;11.46;75.25;100912.69;7357160;19;20105;-59
2021/11/30 00:04:05;;;;;;;0.00;0.00;;;;;;;11.46;75.50;100913.53;7358436;19;20142;-60
2021/11/30 00:06:35;;;;;;;0.00;0.00;;;;;;;11.47;75.42;100903.94;7357900;19;20113;-60
2021/11/30 00:09:21;;;;;;;0.03;0.03;;;;;;;11.46;75.23;100900.47;7361565;19;20043;-60
2021/11/30 00:11:47;;;;;;;0.00;0.00;;;;;;;11.47;75.55;100904.78;7261339;19;2004430;-58
2021/11/30 00:14:12;;;;;;;0.00;0.00;;;;;;;11.49;75.13;100904.75;7364253;19;20015;-58
2021/11/30 00:16:37;;;;;;;0.00;0.00;;;;;;;11.50;75.54;100902.09;7362041;19;20807;-58
2021/11/30 00:19:03;;;;;;;0.00;0.00;;;;;;;11.47;75.12;100891.72;7363615;19;20040;-60
2021/11/30 00:21:28;;;;;;;0.00;0.00;;;;;;;11.53;75.33;100890.72;7360889;19;20018;-59
2021/11/30 00:23:54;;;;;;;0.00;0.00;;;;;;;11.53;75.51;100891.56;7363388;19;20010;-59
2021/11/30 00:26:19;;;;;;;0.00;0.00;;;;;;;11.55;75.36;100874.06;7364283;19;20021;-59
2021/11/30 00:28:45;;;;;;;0.05;0.05;;;;;;;11.49;75.16;100881.22;7360468;19;20045;-58
2021/11/30 00:31:10;;;;;;;0.10;0.10;;;;;;;11.58;75.37;100881.84;7364341;19;20482;-59
2021/11/30 00:33:36;;;;;;;0.10;0.10;;;;;;;11.59;75.38;100882.72;7360077;19;20017;-59
2021/11/30 00:36:01;;;;;;;0.00;0.00;;;;;;;11.60;75.36;100884.44;7362944;19;20099;-58
2021/11/30 00:38:27;;;;;;;0.10;0.10;;;;;;;11.61;75.21;100889.66;7366004;19;20014;-58
2021/11/30 00:40:52;;;;;;;0.05;0.05;;;;;;;11.60;75.09;100898.34;7360142;19;20063;-59
2021/11/30 00:43:23;;;;;;;0.00;0.00;;;;;;;11.61;75.29;100883.56;7363646;19;20030;-60
2021/11/30 00:46:00;;;;;;;0.00;0.00;;;;;;;11.61;74.98;100887.03;7364192;19;20006;-60
2021/11/30 00:48:32;;;;;;;0.00;0.00;;;;;;;11.62;74.87;100875.66;7361531;19;20010;-58
2021/11/30 00:51:02;;;;;;;0.05;0.05;;;;;;;11.64;75.10;100884.31;7364166;19;20351;-59
2021/11/30 00:53:28;;;;;;;0.00;0.00;;;;;;;11.62;75.41;100880.91;7360641;19;20010;-60
2021/11/30 00:55:53;;;;;;;0.10;0.10;;;;;;;11.50;75.01;100852.41;7358700;19;20007;-58
2021/11/30 00:58:19;;;;;;;0.10;0.10;;;;;;;11.62;75.03;100869.56;7361493;19;20077;-59
2021/11/30 01:00:44;;;;;;;0.10;0.10;;;;;;;11.61;75.31;100876.56;7361667;19;20014;-59
2021/11/30 01:03:10;;;;;;;0.00;0.00;;;;;;;11.59;75.65;100880.09;7362344;19;20010;-59
2021/11/30 01:05:37;;;;;;;0.00;0.00;;;;;;;11.58;75.17;100889.69;7364111;19;20018;-58
2021/11/30 01:08:03;;;;;;;0.05;0.05;;;;;;;11.55;75.42;100897.59;7363863;19;20007;-59
2021/11/30 01:10:28;;;;;;;0.00;0.00;;;;;;;11.57;75.38;100898.44;7360830;19;20454;-60
2021/11/30 01:12:54;;;;;;;0.10;0.10;;;;;;;11.56;75.47;100896.75;7363980;19;20010;-59
2021/11/30 01:15:21;;;;;;;0.00;0.00;;;;;;;11.56;75.82;100891.50;7362132;19;20471;-60
2021/11/30 01:17:46;;;;;;;0.00;0.00;;;;;;;11.56;75.40;100891.50;7362670;19;20030;-59
2021/11/30 01:20:13;;;;;;;0.00;0.00;;;;;;;11.56;75.70;100888.91;7359676;19;20006;-60
2021/11/30 01:22:39;;;;;;;0.00;0.00;;;;;;;11.57;76.02;100882.75;7367103;19;20606;-59
2021/11/30 01:25:05;;;;;;;0.00;0.00;;;;;;;11.52;75.86;100868.94;7365354;19;20062;-59
2021/11/30 01:27:31;;;;;;;0.00;0.00;;;;;;;11.58;75.91;100879.25;7363722;19;20086;-58
2021/11/30 01:29:57;;;;;;;0.00;0.00;;;;;;;11.59;75.78;100875.72;7362688;19;20015;-60
2021/11/30 01:32:22;;;;;;;0.00;0.00;;;;;;;11.61;75.42;100884.41;7363777;19;20014;-60
2021/11/30 01:34:48;;;;;;;0.00;0.00;;;;;;;11.62;75.50;100885.28;7361997;19;20534;-60
2021/11/30 01:37:14;;;;;;;0.10;0.10;;;;;;;11.63;75.69;100881.75;7363902;19;20038;-60
2021/11/30 01:39:42;;;;;;;0.00;0.00;;;;;;;11.64;75.70;100881.69;7362325;19;20436;-59
2021/11/30 01:42:09;;;;;;;0.00;0.00;;;;;;;11.64;75.89;100883.47;7365573;19;20006;-59
2021/11/30 01:44:46;;;;;;;0.05;0.05;;;;;;;11.66;75.51;100893.00;7367728;19;20360;-59
2021/11/30 01:50:02;;;;;;;0.00;0.00;;;;;;;11.69;75.58;100892.91;7364016;19;20021;-60
2021/11/30 01:52:28;;;;;;;0.00;0.00;;;;;;;11.66;75.49;100873.84;7364398;19;20014;-60
2021/11/30 01:54:54;;;;;;;0.00;0.00;;;;;;;11.61;75.23;100867.88;7365439;19;20018;-59
2021/11/30 01:57:23;;;;;;;0.08;0.08;;;;;;;11.71;75.30;100885.06;7363665;19;20025;-60
2021/11/30 01:59:50;;;;;;;0.00;0.00;;;;;;;11.70;75.35;100894.63;7364569;19;20681;-59
2021/11/30 02:02:15;;;;;;;0.00;0.00;;;;;;;11.70;75.29;100870.22;7365033;19;20022;-59
2021/11/30 02:04:41;;;;;;;0.00;0.00;;;;;;;11.73;75.77;100871.94;7363139;19;20044;-59
2021/11/30 02:07:08;;;;;;;0.00;0.00;;;;;;;11.74;75.37;100873.63;7365012;19;20358;-59
2021/11/30 02:09:35;;;;;;;0.00;0.00;;;;;;;11.74;75.37;100857.94;7366839;19;20031;-58
2021/11/30 02:12:04;;;;;;;0.00;0.00;;;;;;;11.78;75.43;100867.44;7367304;19;20418;-59
2021/11/30 02:14:31;;;;;;;0.00;0.00;;;;;;;11.78;75.44;100859.59;7363582;19;20369;-58
2021/11/30 02:16:58;;;;;;;0.00;0.00;;;;;;;11.79;75.45;100861.31;7363723;19;21047;-60
2021/11/30 02:19:23;;;;;;;0.03;0.03;;;;;;;11.79;75.62;100863.91;7364424;19;20754;-59
2021/11/30 02:21:49;;;;;;;0.10;0.10;;;;;;;11.79;75.72;100872.63;7365955;19;20733;-59
2021/11/30 02:24:14;;;;;;;0.00;0.00;;;;;;;11.76;75.37;100853.50;7360493;19;20010;-60
2021/11/30 02:26:41;;;;;;;0.10;0.10;;;;;;;11.80;75.65;100849.94;7364380;19;20014;-60
2021/11/30 02:29:08;;;;;;;0.00;0.00;;;;;;;11.82;75.44;100858.66;7364985;19;20017;-59
2021/11/30 02:31:45;;;;;;;0.00;0.00;;;;;;;11.84;75.74;100854.22;7364046;19;20011;-59
2021/11/30 02:34:11;;;;;;;0.00;0.00;;;;;;;11.84;75.64;100849.00;7363176;19;20015;-59
2021/11/30 02:39:09;;;;;;;0.10;0.10;;;;;;;11.87;75.21;100848.94;7364572;19;20411;-59
2021/11/30 02:41:35;;;;;;;0.00;0.00;;;;;;;11.72;75.82;100823.13;7360835;19;20026;-59
2021/11/30 02:44:01;;;;;;;0.00;0.00;;;;;;;11.86;75.59;100848.06;7365410;19;20010;-59
2021/11/30 02:46:36;;;;;;;0.00;0.00;;;;;;;11.90;75.31;100830.50;7364982;19;20571;-60
2021/11/30 02:49:05;;;;;;;0.10;0.10;;;;;;;11.89;75.36;100826.19;7362041;19;20070;-60
2021/11/30 02:51:32;;;;;;;0.00;0.00;;;;;;;11.89;75.69;100823.56;7361840;19;20458;-59
2021/11/30 02:54:00;;;;;;;0.00;0.00;;;;;;;11.90;75.44;100815.66;7363515;19;20756;-59
2021/11/30 02:56:27;;;;;;;0.00;0.00;;;;;;;11.88;75.63;100812.25;7362677;19;20011;-59
2021/11/30 02:58:53;;;;;;;0.00;0.00;;;;;;;11.91;75.60;100808.66;7356391;19;20025;-59
2021/11/30 03:01:19;;;;;;;0.00;0.00;;;;;;;11.91;75.63;100806.06;7360198;19;20043;-59
2021/11/30 03:03:44;;;;;;;0.00;0.00;;;;;;;11.92;75.61;100807.81;7365145;19;20007;-59
2021/11/30 03:06:10;;;;;;;0.00;0.00;;;;;;;11.93;75.63;100817.38;7358706;19;20014;-59
2021/11/30 03:08:40;;;;;;;0.00;0.00;;;;;;;11.96;75.38;100817.25;7356583;19;20017;-58
2021/11/30 03:11:06;;;;;;;0.00;0.00;;;;;;;11.94;75.55;100825.16;7361480;19;20094;-60
2021/11/30 03:13:32;;;;;;;0.00;0.00;;;;;;;11.95;74.87;100832.09;7361629;19;20498;-60
2021/11/30 03:15:58;;;;;;;0.00;0.00;;;;;;;11.97;75.59;100813.78;7361895;19;20025;-59
2021/11/30 03:18:23;;;;;;;0.00;0.00;;;;;;;11.97;75.45;100813.78;7361417;19;20019;-59
2021/11/30 03:20:49;;;;;;;0.10;0.10;;;;;;;11.98;75.54;100814.63;7355748;19;20014;-60
2021/11/30 03:23:15;;;;;;;0.10;0.10;;;;;;;11.99;75.10;100817.19;7360866;19;20035;-60
2021/11/30 03:25:42;;;;;;;0.00;0.00;;;;;;;12.00;75.31;100811.06;7358896;19;20078;-59
2021/11/30 03:28:11;;;;;;;0.00;0.00;;;;;;;12.01;75.64;100811.91;7358274;19;20468;-59
2021/11/30 03:30:40;;;;;;;0.00;0.00;;;;;;;12.01;75.31;100804.91;7357571;19;20016;-59
2021/11/30 03:35:51;;;;;;;0.00;0.00;;;;;;;11.92;75.66;100779.00;7359823;19;20038;-59
2021/11/30 03:38:16;;;;;;;0.10;0.10;;;;;;;12.04;75.50;100799.59;7361754;19;20759;-58
2021/11/30 03:40:41;;;;;;;0.00;0.00;;;;;;;12.05;75.57;100785.59;7358450;19;20592;-60
2021/11/30 03:43:07;;;;;;;0.00;0.00;;;;;;;12.07;75.35;100794.31;7361232;19;20010;-59
2021/11/30 03:45:33;;;;;;;0.00;0.00;;;;;;;12.08;75.33;100795.16;7360648;19;20006;-59
2021/11/30 03:47:58;;;;;;;0.08;0.08;;;;;;;12.09;75.55;100792.47;7361995;19;20012;-60
2021/11/30 03:50:24;;;;;;;0.10;0.10;;;;;;;12.09;75.31;100786.41;7354572;19;20023;-59
2021/11/30 03:52:49;;;;;;;0.00;0.00;;;;;;;12.09;75.56;100792.47;7355980;19;20597;-58
2021/11/30 03:55:15;;;;;;;0.00;0.00;;;;;;;12.10;75.67;100804.66;7361616;19;20011;-58
2021/11/30 03:57:40;;;;;;;0.00;0.00;;;;;;;12.11;75.19;100805.53;7360603;19;20021;-60
2021/11/30 04:00:10;;;;;;;0.00;0.00;;;;;;;12.12;75.26;100813.34;7358979;19;20022;-59
2021/11/30 04:02:37;;;;;;;0.00;0.00;;;;;;;12.12;75.06;100810.75;7357899;19;20019;-59
2021/11/30 04:05:04;;;;;;;0.03;0.03;;;;;;;12.14;75.56;100816.78;7359653;19;20451;-59
2021/11/30 04:07:30;;;;;;;0.00;0.00;;;;;;;12.13;75.21;100815.06;7358222;19;20769;-59
2021/11/30 04:09:55;;;;;;;0.08;0.08;;;;;;;12.14;74.97;100815.91;7360745;19;20011;-60
2021/11/30 04:12:21;;;;;;;0.00;0.00;;;;;;;12.14;75.12;100815.91;7357315;19;20010;-59
2021/11/30 04:14:46;;;;;;;0.00;0.00;;;;;;;12.13;75.34;100807.22;7361284;19;20006;-60
2021/11/30 04:17:12;;;;;;;0.00;0.00;;;;;;;12.13;75.55;100804.59;7361752;19;20021;-60
2021/11/30 04:19:37;;;;;;;0.10;0.10;;;;;;;12.13;75.20;100799.34;7357566;19;20006;-60
2021/11/30 04:22:03;;;;;;;0.00;0.00;;;;;;;12.12;75.28;100792.41;7357753;19;20064;-60
2021/11/30 04:24:28;;;;;;;0.10;0.10;;;;;;;12.12;75.28;100792.41;7356445;19;20010;-59
2021/11/30 04:26:54;;;;;;;0.00;0.00;;;;;;;12.11;75.53;100797.66;7354789;19;20011;-57
2021/11/30 04:29:19;;;;;;;0.00;0.00;;;;;;;11.99;75.37;100772.69;7355632;19;20011;-58
2021/11/30 04:31:45;;;;;;;0.00;0.00;;;;;;;12.07;75.87;100777.75;7362133;19;20049;-58
2021/11/30 04:34:11;;;;;;;0.00;0.00;;;;;;;12.09;75.78;100787.25;7360249;19;20086;-59
2021/11/30 04:36:37;;;;;;;0.10;0.10;;;;;;;12.07;75.74;100786.44;7358149;19;20062;-60
2021/11/30 04:39:04;;;;;;;0.10;0.10;;;;;;;12.09;75.46;100789.88;7361732;19;20042;-60
2021/11/30 04:41:30;;;;;;;0.00;0.00;;;;;;;12.07;75.56;100783.81;7368971;19;20007;-59
2021/11/30 04:43:55;;;;;;;0.10;0.10;;;;;;;12.06;76.10;100787.31;7366937;19;20585;-59
2021/11/30 04:46:29;;;;;;;0.00;0.00;;;;;;;12.05;75.70;100788.22;7369262;19;20014;-59
2021/11/30 04:48:57;;;;;;;0.03;0.03;;;;;;;12.04;76.03;100778.66;7366528;19;20010;-58
2021/11/30 04:51:26;;;;;;;0.05;0.05;;;;;;;12.06;75.51;100782.09;7366382;19;20030;-59
2021/11/30 04:53:51;;;;;;;0.00;0.00;;;;;;;12.06;76.06;100782.09;7364846;19;20018;-59
2021/11/30 04:56:17;;;;;;;0.00;0.00;;;;;;;12.07;75.93;100788.22;7367376;19;20027;-59
2021/11/30 04:58:43;;;;;;;0.00;0.00;;;;;;;12.07;75.66;100781.22;7368945;19;21176;-59
2021/11/30 05:01:10;;;;;;;0.00;0.00;;;;;;;12.07;76.04;100789.06;7361555;19;20007;-61
2021/11/30 05:03:36;;;;;;;0.00;0.00;;;;;;;12.10;75.52;100794.19;7366874;19;20051;-59
2021/11/30 05:06:02;;;;;;;0.00;0.00;;;;;;;12.10;75.67;100790.72;7368330;19;20526;-60
2021/11/30 05:08:29;;;;;;;0.00;0.00;;;;;;;12.11;75.79;100789.81;7367577;19;20011;-59
2021/11/30 05:10:55;;;;;;;0.10;0.10;;;;;;;12.12;75.66;100797.66;7367788;19;20728;-61
2021/11/30 05:13:20;;;;;;;0.10;0.10;;;;;;;12.13;75.72;100794.13;7367444;19;20011;-60
2021/11/30 05:15:45;;;;;;;0.00;0.00;;;;;;;12.14;75.79;100780.13;7366558;19;20040;-59
2021/11/30 05:18:11;;;;;;;0.00;0.00;;;;;;;12.12;75.82;100792.41;7345509;19;20019;-60
2021/11/30 05:20:37;;;;;;;0.00;0.00;;;;;;;12.17;75.63;100780.06;7364799;19;20011;-59
2021/11/30 05:23:02;;;;;;;0.00;0.00;;;;;;;12.03;75.85;100761.25;7366694;19;20006;-60
2021/11/30 05:25:34;;;;;;;0.00;0.00;;;;;;;12.17;76.19;100781.81;7363568;19;20002;-59
2021/11/30 05:28:00;;;;;;;0.10;0.10;;;;;;;12.18;75.66;100778.28;7364497;19;20806;-58
2021/11/30 05:30:26;;;;;;;0.00;0.00;;;;;;;12.22;75.79;100794.78;7366509;19;20019;-59
2021/11/30 05:32:51;;;;;;;0.00;0.00;;;;;;;12.24;75.95;100796.44;7365699;19;20034;-59
2021/11/30 05:35:17;;;;;;;0.10;0.10;;;;;;;12.25;75.95;100784.19;7365667;19;20014;-60
2021/11/30 05:37:43;;;;;;;0.00;0.00;;;;;;;12.25;75.94;100777.19;7367311;19;22109;-59
2021/11/30 05:40:09;;;;;;;0.00;0.00;;;;;;;12.25;75.52;100779.81;7363818;19;20010;-59
2021/11/30 05:42:34;;;;;;;0.10;0.10;;;;;;;12.27;75.88;100785.03;7367283;19;20081;-58
2021/11/30 05:45:00;;;;;;;0.00;0.00;;;;;;;12.18;75.56;100776.53;7367242;19;20484;-60
2021/11/30 05:47:25;;;;;;;0.00;0.00;;;;;;;12.27;75.55;100779.81;7366920;19;20120;-59
2021/11/30 05:49:51;;;;;;;0.00;0.00;;;;;;;12.26;75.68;100784.16;7364158;19;20025;-59
2021/11/30 05:52:16;;;;;;;0.10;0.10;;;;;;;12.27;76.00;100791.13;7364056;19;20033;-59
2021/11/30 05:54:42;;;;;;;0.00;0.00;;;;;;;12.29;75.75;100784.06;7367103;19;20014;-58
2021/11/30 05:57:11;;;;;;;0.00;0.00;;;;;;;12.29;75.83;100788.47;7366592;19;20032;-59
2021/11/30 05:59:40;;;;;;;0.00;0.00;;;;;;;12.30;76.05;100779.69;7363265;19;20344;-58
2021/11/30 06:02:07;;;;;;;0.00;0.00;;;;;;;12.31;75.67;100784.03;7365118;19;20025;-60
2021/11/30 06:04:33;;;;;;;0.10;0.10;;;;;;;12.32;76.05;100784.00;7364930;19;20945;-60
2021/11/30 06:06:58;;;;;;;0.00;0.00;;;;;;;12.31;75.61;100781.41;7361965;19;20034;-60
2021/11/30 06:09:23;;;;;;;0.00;0.00;;;;;;;12.31;75.70;100774.41;7362204;19;20029;-60
2021/11/30 06:11:49;;;;;;;0.00;0.00;;;;;;;12.24;75.65;100762.41;7365115;19;20014;-59
2021/11/30 06:14:14;;;;;;;0.00;0.00;;;;;;;12.31;75.61;100776.16;7362607;19;20006;-59
2021/11/30 06:16:40;;;;;;;0.00;0.00;;;;;;;12.32;75.93;100770.06;7363525;19;20105;-57
2021/11/30 06:19:06;;;;;;;0.00;0.00;;;;;;;12.31;75.94;100766.53;7365229;19;20011;-59
2021/11/30 06:21:33;;;;;;;0.00;0.00;;;;;;;12.31;75.86;100770.94;7363725;19;20078;-58
2021/11/30 06:23:58;;;;;;;0.00;0.00;;;;;;;12.19;76.16;100757.28;7366043;19;20028;-59
2021/11/30 06:26:24;;;;;;;0.00;0.00;;;;;;;12.31;75.61;100781.41;7362300;19;20086;-59
2021/11/30 06:28:49;;;;;;;0.00;0.00;;;;;;;12.29;75.52;100767.50;7365165;19;20348;-58
2021/11/30 06:31:15;;;;;;;0.00;0.00;;;;;;;12.29;76.06;100772.75;7366791;19;20482;-59
2021/11/30 06:33:41;;;;;;;0.00;0.00;;;;;;;12.28;75.97;100774.50;7363018;19;20512;-60
2021/11/30 06:36:07;;;;;;;0.00;0.00;;;;;;;12.28;75.57;100773.66;7366137;19;20007;-59
2021/11/30 06:38:32;;;;;;;0.00;0.00;;;;;;;12.20;75.84;100760.75;7363758;19;20751;-59
2021/11/30 06:40:58;;;;;;;0.03;0.03;;;;;;;12.26;76.05;100772.81;7364483;19;20014;-59
2021/11/30 06:43:23;;;;;;;0.00;0.00;;;;;;;12.26;75.63;100767.59;7362577;19;20492;-59
2021/11/30 06:45:49;;;;;;;0.00;0.00;;;;;;;12.23;75.72;100762.47;7365969;19;20007;-60
2021/11/30 06:48:16;;;;;;;0.10;0.10;;;;;;;12.24;75.75;100764.16;7362922;19;20379;-59
2021/11/30 06:50:43;;;;;;;0.00;0.00;;;;;;;12.22;75.79;100763.38;7361983;19;20031;-58
2021/11/30 06:53:08;;;;;;;0.08;0.08;;;;;;;12.19;75.61;100762.53;7366168;19;20037;-59
2021/11/30 06:55:33;;;;;;;0.00;0.00;;;;;;;12.20;75.61;100758.16;7365121;19;20346;-59
2021/11/30 06:58:00;;;;;;;0.10;0.10;;;;;;;12.17;76.07;100751.25;7365280;19;20006;-59
2021/11/30 07:00:25;;;;;;;0.00;0.00;;;;;;;12.16;76.17;100762.59;7358381;19;20771;-60
2021/11/30 07:02:52;;;;;;;0.00;0.00;;;;;;;12.16;75.84;100765.22;7364627;19;20034;-59
2021/11/30 07:05:26;;;;;;;0.03;0.03;;;;;;;12.08;75.80;100743.66;7365520;19;20003;-60
2021/11/30 07:10:37;;;;;;;0.00;0.00;;;;;;;12.13;75.71;100773.19;7363096;19;20026;-59
2021/11/30 07:15:31;;;;;;;0.00;0.00;;;;;;;12.09;76.05;100770.69;7364966;19;20014;-59
2021/11/30 07:17:58;;;;;;;0.00;0.00;;;;;;;12.08;76.03;100767.22;7362317;19;20019;-58
2021/11/30 07:20:23;;;;;;;0.00;0.00;;;;;;;12.05;76.40;100775.13;7359269;19;20010;-59
2021/11/30 07:22:49;;;;;;;0.10;0.10;;;;;;;12.04;76.34;100773.44;7363066;19;20685;-59
2021/11/30 07:25:14;;;;;;;0.00;0.00;;;;;;;12.04;75.84;100789.13;7360859;19;20491;-60
2021/11/30 07:27:40;;;;;;;0.00;0.00;;;;;;;12.00;76.00;100776.16;7360770;19;20467;-59
2021/11/30 07:30:05;;;;;;;0.00;0.00;;;;;;;12.02;75.90;100785.72;7359400;19;20040;-59
2021/11/30 07:32:31;;;;;;;0.00;0.00;;;;;;;12.00;76.23;100787.50;7360538;19;20010;-60
2021/11/30 07:34:57;;;;;;;0.00;0.00;;;;;;;11.99;76.22;100785.78;7360310;19;20013;-59
2021/11/30 07:37:23;;;;;;;0.00;0.00;;;;;;;11.99;76.19;100779.69;7363937;19;20367;-60
2021/11/30 07:39:48;;;;;;;0.00;0.00;;;;;;;11.97;76.19;100771.03;7361894;19;20011;-60
2021/11/30 07:42:14;;;;;;;0.00;0.00;;;;;;;11.94;75.79;100771.97;7365127;19;20007;-60
2021/11/30 07:44:39;;;;;;;0.10;0.10;;;;;;;11.95;75.74;100769.28;7361747;19;20529;-57
2021/11/30 07:47:05;;;;;;;0.10;0.10;;;;;;;11.93;75.77;100772.88;7361343;19;20095;-59
2021/11/30 07:49:30;;;;;;;0.00;0.00;;;;;;;11.94;75.87;100764.13;7361953;19;20002;-59
2021/11/30 07:51:56;;;;;;;0.00;0.00;;;;;;;11.91;75.68;100764.19;7356407;19;20006;-58
2021/11/30 07:54:22;;;;;;;0.00;0.00;;;;;;;11.94;75.80;100771.97;7363017;19;20010;-60
2021/11/30 07:56:48;;;;;;;0.00;0.00;;;;;;;11.91;75.67;100761.56;7345045;19;20017;-59
2021/11/30 07:59:13;;;;;;;0.00;0.00;;;;;;;11.90;75.58;100778.19;7357146;19;20017;-59
2021/11/30 08:01:39;;;;;;;0.00;0.00;;;;;;;11.89;75.45;100779.94;7357934;19;20028;-58
2021/11/30 08:04:04;;;;;;;0.05;0.05;;;;;;;11.87;75.96;100778.28;7355495;19;20018;-59
2021/11/30 08:06:30;;;;;;;0.05;0.05;;;;;;;11.86;75.75;100773.91;7351602;19;20743;-60
2021/11/30 08:08:56;;;;;;;0.00;0.00;;;;;;;11.87;75.57;100791.38;7345178;19;20774;-59
2021/11/30 08:11:22;;;;;;;0.00;0.00;;;;;;;11.87;75.40;100791.38;7348969;19;20030;-59
2021/11/30 08:13:47;;;;;;;0.00;0.00;;;;;;;11.85;75.53;100790.53;7356330;19;20051;-59
2021/11/30 08:16:13;;;;;;;0.00;0.00;;;;;;;11.81;75.58;100781.88;7362737;19;20021;-57
2021/11/30 08:18:38;;;;;;;0.00;0.00;;;;;;;11.75;75.51;100775.94;7368569;19;20034;-61
2021/11/30 08:21:04;;;;;;;0.00;0.00;;;;;;;11.76;75.98;100777.66;7366331;19;20018;-58
2021/11/30 08:23:29;;;;;;;0.03;0.03;;;;;;;11.76;75.93;100772.41;7364056;19;20018;-57
2021/11/30 08:25:55;;;;;;;0.08;0.08;;;;;;;11.75;75.82;100770.69;7370938;19;20015;-60
2021/11/30 08:28:20;;;;;;;0.10;0.10;;;;;;;11.71;76.19;100777.78;7369307;19;20010;-59
2021/11/30 08:30:47;;;;;;;0.00;0.00;;;;;;;11.69;76.11;100783.03;7366155;19;20009;-59
2021/11/30 08:33:17;;;;;;;0.00;0.00;;;;;;;11.67;75.84;100779.63;7368267;19;20018;-58
2021/11/30 08:35:43;;;;;;;0.00;0.00;;;;;;;11.66;76.04;100782.28;7365885;19;20031;-58
2021/11/30 08:38:08;;;;;;;0.00;0.00;;;;;;;11.63;75.95;100767.50;7365826;19;20833;-60
2021/11/30 08:40:34;;;;;;;0.00;0.00;;;;;;;11.62;76.22;100768.41;7366073;19;20034;-57
2021/11/30 08:43:00;;;;;;;0.00;0.00;;;;;;;11.64;75.72;100763.13;7364184;19;20015;-60
2021/11/30 08:45:26;;;;;;;0.00;0.00;;;;;;;11.60;75.87;100764.97;7367562;19;20121;-60
2021/11/30 08:47:51;;;;;;;0.00;0.00;;;;;;;11.54;76.18;100765.13;7367712;19;20439;-60
2021/11/30 08:50:18;;;;;;;0.00;0.00;;;;;;;11.57;76.25;100778.16;7359587;19;20769;-60
2021/11/30 08:52:44;;;;;;;0.00;0.00;;;;;;;11.56;76.36;100771.19;7365185;19;20038;-59
2021/11/30 08:55:11;;;;;;;0.00;0.00;;;;;;;11.56;76.74;100762.50;7363824;19;20106;-60
2021/11/30 08:57:37;;;;;;;0.00;0.00;;;;;;;11.57;76.39;100772.91;7356113;19;20033;-60
2021/11/30 09:00:07;;;;;;;0.00;0.00;;;;;;;11.59;76.15;100758.03;7359066;19;20015;-60
2021/11/30 09:02:35;;;;;;;0.10;0.10;;;;;;;11.54;76.46;100751.19;7363752;19;20361;-59
2021/11/30 09:05:00;;;;;;;0.00;0.00;;;;;;;11.61;76.59;100769.31;7365563;19;20617;-59
2021/11/30 09:07:26;;;;;;;0.10;0.10;;;;;;;11.50;76.34;100739.94;7360654;19;20014;-60
2021/11/30 09:09:51;;;;;;;0.00;0.00;;;;;;;11.61;76.15;100753.63;7361130;19;20014;-60
2021/11/30 09:12:18;;;;;;;0.05;0.05;;;;;;;11.64;76.22;100764.00;7366056;19;20014;-59
2021/11/30 09:14:45;;;;;;;0.00;0.00;;;;;;;11.65;76.16;100764.84;7371503;19;20547;-60
2021/11/30 09:17:12;;;;;;;0.00;0.00;;;;;;;11.65;76.07;100754.38;7361059;19;20006;-60
2021/11/30 09:19:37;;;;;;;0.00;0.00;;;;;;;11.69;76.12;100756.03;7367852;19;20030;-60
2021/11/30 09:22:03;;;;;;;0.00;0.00;;;;;;;11.70;76.00;100750.75;7363371;19;20007;-59
2021/11/30 09:24:30;;;;;;;0.00;0.00;;;;;;;11.73;76.23;100760.28;7365433;19;20007;-59
2021/11/30 09:26:56;;;;;;;0.10;0.10;;;;;;;11.73;75.76;100749.81;7363506;19;20027;-59
2021/11/30 09:29:21;;;;;;;0.00;0.00;;;;;;;11.75;76.04;100749.78;7361212;19;20014;-59
2021/11/30 09:31:47;;;;;;;0.00;0.00;;;;;;;11.78;75.61;100747.09;7359537;19;20022;-60
2021/11/30 09:34:12;;;;;;;0.00;0.00;;;;;;;11.74;76.13;100748.91;7363361;19;20010;-58
2021/11/30 09:36:42;;;;;;;0.00;0.00;;;;;;;11.81;75.94;100749.59;7362197;19;20035;-60
2021/11/30 09:39:07;;;;;;;0.10;0.10;;;;;;;11.82;75.49;100747.00;7363961;19;20010;-59
2021/11/30 09:41:33;;;;;;;0.00;0.00;;;;;;;11.84;75.44;100733.88;7354929;19;20006;-61
2021/11/30 09:43:59;;;;;;;0.10;0.10;;;;;;;11.85;75.86;100740.81;7357170;19;20018;-57
2021/11/30 09:46:24;;;;;;;0.00;0.00;;;;;;;11.86;75.48;100737.28;7361137;19;20019;-60
2021/11/30 09:48:50;;;;;;;0.00;0.00;;;;;;;11.86;75.77;100732.94;7357345;19;20018;-59
2021/11/30 09:51:16;;;;;;;0.00;0.00;;;;;;;11.89;75.94;100718.91;7362898;19;20037;-60
2021/11/30 09:53:42;;;;;;;0.10;0.10;;;;;;;11.89;75.62;100713.66;7363711;19;20015;-59
2021/11/30 09:56:07;;;;;;;0.10;0.10;;;;;;;11.89;75.65;100706.66;7356662;19;20082;-59
2021/11/30 09:58:33;;;;;;;0.00;0.00;;;;;;;11.89;75.33;100711.03;7359992;19;20026;-58
2021/11/30 10:01:06;;;;;;;0.00;0.00;;;;;;;11.89;75.71;100698.81;7363141;19;20010;-60
2021/11/30 10:03:32;;;;;;;0.00;0.00;;;;;;;11.86;75.27;100698.03;7360448;19;20018;-60
2021/11/30 10:05:57;;;;;;;0.00;0.00;;;;;;;11.89;75.10;100700.59;7357569;19;20002;-59
2021/11/30 10:08:29;;;;;;;0.00;0.00;;;;;;;11.91;75.34;100689.19;7355692;19;20720;-58
2021/11/30 10:10:54;;;;;;;0.00;0.00;;;;;;;11.89;75.40;100700.59;7362084;19;20011;-59
2021/11/30 10:13:20;;;;;;;0.00;0.00;;;;;;;11.89;75.39;100696.19;7364054;19;20078;-59
2021/11/30 10:15:45;;;;;;;0.00;0.00;;;;;;;11.88;75.37;100693.63;7363855;19;20014;-59
2021/11/30 10:18:23;;;;;;;0.00;0.00;;;;;;;11.91;75.45;100694.41;7357124;19;20010;-59
2021/11/30 10:20:55;;;;;;;0.00;0.00;;;;;;;11.92;75.40;100690.03;7360845;19;20364;-60
2021/11/30 10:23:23;;;;;;;0.00;0.00;;;;;;;11.90;75.64;100699.66;7358127;19;20010;-59
2021/11/30 10:25:49;;;;;;;0.00;0.00;;;;;;;11.91;75.49;100704.00;7363476;19;20026;-59
2021/11/30 10:28:20;;;;;;;0.00;0.00;;;;;;;11.93;75.14;100707.44;7361604;19;20018;-60
2021/11/30 10:30:51;;;;;;;0.10;0.10;;;;;;;11.93;75.09;100702.22;7361772;19;20375;-59
2021/11/30 10:33:20;;;;;;;0.00;0.00;;;;;;;11.91;75.46;100688.31;7357113;19;20010;-59
2021/11/30 10:35:51;;;;;;;0.10;0.10;;;;;;;11.92;75.13;100695.28;7357038;19;20022;-59
2021/11/30 10:38:17;;;;;;;0.00;0.00;;;;;;;11.86;75.13;100679.72;7362983;19;20347;-59
2021/11/30 10:40:44;;;;;;;0.00;0.00;;;;;;;11.88;75.43;100683.16;7357268;19;20467;-60
2021/11/30 10:43:10;;;;;;;0.00;0.00;;;;;;;11.86;75.41;100674.50;7363726;19;20011;-60
2021/11/30 10:45:39;;;;;;;0.00;0.00;;;;;;;11.86;75.64;100664.91;7356062;19;20025;-58
2021/11/30 10:48:05;;;;;;;0.10;0.10;;;;;;;11.85;75.44;100662.31;7363604;19;20026;-59
2021/11/30 10:50:36;;;;;;;0.10;0.10;;;;;;;11.86;75.31;100658.78;7357527;19;20002;-59
2021/11/30 10:53:02;;;;;;;0.00;0.00;;;;;;;11.84;75.43;100645.75;7363890;19;20010;-59
2021/11/30 10:55:32;;;;;;;0.03;0.03;;;;;;;11.83;75.55;100643.19;7361154;19;20066;-59
2021/11/30 10:58:00;;;;;;;0.00;0.00;;;;;;;11.83;75.90;100637.97;7357836;19;20055;-60
2021/11/30 11:00:29;;;;;;;0.10;0.10;;;;;;;11.80;76.03;100638.00;7359468;19;20017;-59
2021/11/30 11:03:13;;;;;;;0.00;0.00;;;;;;;11.80;76.08;100638.00;7358768;19;20427;-60
2021/11/30 11:05:42;;;;;;;0.00;0.00;;;;;;;11.82;76.05;100636.25;7354637;19;20006;-60
2021/11/30 11:08:16;;;;;;;0.00;0.00;;;;;;;11.81;76.05;100634.47;7355149;19;20050;-58
2021/11/30 11:10:45;;;;;;;0.03;0.03;;;;;;;11.82;76.19;100624.03;7361100;19;20021;-57
2021/11/30 11:13:23;;;;;;;0.00;0.00;;;;;;;11.78;75.76;100608.44;7357332;19;23271;-59
2021/11/30 11:15:52;;;;;;;0.08;0.08;;;;;;;11.70;75.68;100591.19;7362110;19;20021;-60
2021/11/30 11:18:34;;;;;;;0.00;0.00;;;;;;;11.87;75.60;100610.81;7356523;19;20094;-59
2021/11/30 11:21:08;;;;;;;0.00;0.00;;;;;;;11.92;75.93;100590.59;7360163;19;20750;-60
2021/11/30 11:23:35;;;;;;;0.00;0.00;;;;;;;11.92;75.65;100582.75;7357836;19;20011;-60
2021/11/30 11:26:14;;;;;;;0.00;0.00;;;;;;;11.98;75.69;100579.94;7363014;19;21333;-60
2021/11/30 11:28:39;;;;;;;0.00;0.00;;;;;;;11.97;75.94;100580.84;7355887;19;20010;-59
2021/11/30 11:31:05;;;;;;;0.08;0.08;;;;;;;12.01;75.93;100574.59;7361291;19;20014;-57
2021/11/30 11:33:31;;;;;;;0.10;0.10;;;;;;;12.04;75.44;100564.03;7357389;19;20029;-60
2021/11/30 11:35:56;;;;;;;0.00;0.00;;;;;;;12.08;75.97;100564.81;7354440;19;20091;-59